Terminal Aerodrome Forecast
Issued by NWS

Home | Current Version | Previous Version | Text Only | Print | Product List | Glossary On
Versions: 1 2 3 4 5 6 7 8 9 10 11 12 13 14 15 16
108
FTUS41 KBTV 231124
TAFSLK
TAF
KSLK 231124Z 2312/2412 25006KT P6SM VCSH SCT045 BKN080
     FM231600 28009KT P6SM VCSH SCT060 BKN090
     FM231800 29009KT 4SM SHRA BR BKN040 BKN080
     FM232200 31007KT P6SM VCSH SCT040 BKN120
     FM240300 00000KT P6SM SCT200
     FM240600 00000KT 1/2SM FG SCT001=

USA.gov is the U.S. government's official web portal to all federal, state and local government web resources and services.